createdAt,value
2023-03-05T00:00:50.437Z,7.55
2023-03-05T00:01:50.389Z,7.41
2023-03-05T00:02:50.481Z,7.55
2023-03-05T00:03:50.409Z,7.47
2023-03-05T00:04:50.364Z,7.56
2023-03-05T00:05:50.385Z,7.71
2023-03-05T00:06:50.325Z,7.81
2023-03-05T00:07:50.315Z,7.67
2023-03-05T00:08:50.328Z,7.56
2023-03-05T00:09:50.291Z,7.85
2023-03-05T00:10:50.503Z,7.94
2023-03-05T00:11:50.288Z,8.07
2023-03-05T00:12:50.251Z,8.03
2023-03-05T00:13:50.279Z,7.66
2023-03-05T00:14:50.234Z,7.84
2023-03-05T00:15:50.235Z,7.67
2023-03-05T00:16:50.395Z,7.67
2023-03-05T00:17:50.202Z,7.71
2023-03-05T00:18:50.225Z,7.53
2023-03-05T00:19:50.184Z,7.44
2023-03-05T00:20:50.152Z,7.27
2023-03-05T00:21:50.155Z,7.32
2023-03-05T00:22:50.331Z,7.55
2023-03-05T00:23:50.143Z,7.72
2023-03-05T00:24:50.121Z,7.40
2023-03-05T00:25:50.104Z,7.37
2023-03-05T00:26:50.108Z,7.42
2023-03-05T00:27:50.097Z,7.69
2023-03-05T00:28:50.344Z,7.37
2023-03-05T00:29:50.072Z,7.53
2023-03-05T00:30:50.094Z,7.55
2023-03-05T00:31:50.039Z,7.62
2023-03-05T00:32:50.036Z,7.66
2023-03-05T00:33:50.017Z,7.69
2023-03-05T00:34:50.053Z,7.62
2023-03-05T00:35:50.040Z,7.60
2023-03-05T00:36:49.996Z,7.50
2023-03-05T00:37:49.995Z,7.41
2023-03-05T00:38:49.959Z,7.27
2023-03-05T00:39:49.974Z,7.24
2023-03-05T00:40:49.957Z,7.40
2023-03-05T00:41:49.959Z,7.41
2023-03-05T00:42:49.918Z,7.49
2023-03-05T00:43:49.909Z,7.45
2023-03-05T00:44:49.910Z,7.29
2023-03-05T00:45:49.915Z,7.44
2023-03-05T00:46:49.989Z,7.50
2023-03-05T00:47:49.884Z,7.53
2023-03-05T00:48:49.846Z,7.38
2023-03-05T00:49:49.885Z,7.69
2023-03-05T00:50:49.829Z,7.77
2023-03-05T00:51:49.849Z,7.84
2023-03-05T00:52:49.847Z,7.84
2023-03-05T00:53:49.805Z,7.72
2023-03-05T00:54:49.776Z,7.52
2023-03-05T00:55:49.781Z,7.53
2023-03-05T00:56:49.761Z,7.66
2023-03-05T00:57:49.753Z,7.62
2023-03-05T00:58:49.756Z,7.78
2023-03-05T00:59:49.727Z,7.74
2023-03-05T01:00:49.719Z,7.63
2023-03-05T01:01:49.716Z,7.71
2023-03-05T01:02:49.695Z,7.69
2023-03-05T01:03:49.668Z,7.78
2023-03-05T01:04:49.751Z,7.82
2023-03-05T01:05:49.659Z,7.87
2023-03-05T01:06:49.643Z,8.02
2023-03-05T01:07:49.620Z,7.89
2023-03-05T01:08:49.611Z,7.85
2023-03-05T01:09:49.584Z,7.94
2023-03-05T01:10:49.622Z,7.97
2023-03-05T01:11:49.615Z,7.94
2023-03-05T01:12:49.580Z,7.92
2023-03-05T01:13:49.543Z,7.77
2023-03-05T01:14:49.541Z,7.59
2023-03-05T01:15:49.570Z,7.40
2023-03-05T01:16:49.499Z,7.44
2023-03-05T01:17:49.508Z,7.63
2023-03-05T01:18:49.491Z,7.72
2023-03-05T01:19:49.465Z,7.77
2023-03-05T01:20:49.457Z,7.58
2023-03-05T01:21:49.487Z,7.60
2023-03-05T01:22:49.446Z,7.52
2023-03-05T01:23:49.430Z,7.67
2023-03-05T01:24:49.413Z,7.74
2023-03-05T01:25:49.395Z,7.81
2023-03-05T01:26:49.404Z,7.60
2023-03-05T01:27:49.405Z,7.67
2023-03-05T01:28:49.389Z,7.84
2023-03-05T01:29:49.345Z,7.97
2023-03-05T01:30:49.344Z,8.02
2023-03-05T01:31:49.407Z,8.07
2023-03-05T01:32:49.346Z,8.02
2023-03-05T01:33:49.313Z,7.90
2023-03-05T01:34:49.297Z,7.72
2023-03-05T01:35:49.364Z,7.75
2023-03-05T01:36:49.273Z,7.66
2023-03-05T01:37:49.255Z,7.69
2023-03-05T01:38:49.282Z,7.69
2023-03-05T01:39:49.234Z,7.78
2023-03-05T01:40:49.293Z,7.79
2023-03-05T01:41:49.213Z,7.72
2023-03-05T01:42:49.221Z,7.75
2023-03-05T01:43:49.196Z,7.79
2023-03-05T01:44:49.216Z,7.87
2023-03-05T01:45:49.223Z,7.79
2023-03-05T01:46:49.158Z,7.66
2023-03-05T01:47:49.153Z,7.42
2023-03-05T01:48:49.139Z,7.62
2023-03-05T01:49:49.126Z,7.72
2023-03-05T01:50:49.150Z,7.82
2023-03-05T01:51:49.095Z,7.84
2023-03-05T01:52:49.110Z,7.85
2023-03-05T01:53:49.091Z,7.85
2023-03-05T01:54:49.066Z,7.93
2023-03-05T01:55:49.047Z,7.92
2023-03-05T01:56:49.067Z,7.90
2023-03-05T01:57:49.036Z,7.85
2023-03-05T01:58:49.049Z,7.85
2023-03-05T01:59:49.034Z,7.72
2023-03-05T02:00:49.036Z,7.71
2023-03-05T02:01:49.027Z,7.84
2023-03-05T02:02:49.011Z,7.89
2023-03-05T02:03:48.992Z,7.96
2023-03-05T02:04:48.951Z,7.96
2023-03-05T02:05:48.954Z,7.99
2023-03-05T02:06:48.927Z,8.04
2023-03-05T02:07:48.937Z,8.10
2023-03-05T02:08:48.905Z,8.10
2023-03-05T02:09:48.898Z,8.12
2023-03-05T02:10:48.888Z,8.14
2023-03-05T02:11:48.905Z,8.08
2023-03-05T02:12:48.881Z,7.92
2023-03-05T02:13:48.887Z,7.84
2023-03-05T02:14:48.852Z,7.77
2023-03-05T02:15:48.822Z,7.79
2023-03-05T02:16:48.905Z,7.90
2023-03-05T02:17:48.799Z,7.87
2023-03-05T02:18:48.789Z,7.79
2023-03-05T02:19:48.839Z,7.75
2023-03-05T02:20:48.762Z,7.79
2023-03-05T02:21:48.765Z,7.77
2023-03-05T02:22:48.762Z,7.87
2023-03-05T02:23:48.759Z,7.92
2023-03-05T02:24:48.748Z,7.97
2023-03-05T02:25:48.759Z,8.03
2023-03-05T02:26:48.702Z,8.04
2023-03-05T02:27:48.705Z,8.10
2023-03-05T02:28:48.690Z,8.08
2023-03-05T02:29:48.676Z,8.10
2023-03-05T02:30:48.650Z,8.02
2023-03-05T02:31:48.747Z,8.04
2023-03-05T02:32:48.659Z,7.82
2023-03-05T02:33:48.621Z,7.85
2023-03-05T02:34:48.652Z,7.89
2023-03-05T02:35:48.613Z,7.78
2023-03-05T02:36:48.693Z,7.58
2023-03-05T02:37:48.576Z,7.45
2023-03-05T02:38:48.562Z,7.47
2023-03-05T02:39:48.560Z,7.53
2023-03-05T02:40:48.552Z,7.45
2023-03-05T02:41:48.542Z,7.44
2023-03-05T02:42:48.542Z,7.50
2023-03-05T02:43:48.498Z,7.47
2023-03-05T02:44:48.568Z,7.40
2023-03-05T02:45:48.504Z,7.35
2023-03-05T02:46:48.520Z,7.52
2023-03-05T02:47:48.446Z,7.27
2023-03-05T02:48:48.496Z,6.99
2023-03-05T02:49:48.435Z,6.77
2023-03-05T02:50:48.433Z,6.77
2023-03-05T02:51:48.421Z,6.83
2023-03-05T02:52:48.397Z,6.61
2023-03-05T02:53:48.380Z,6.53
2023-03-05T02:54:48.402Z,6.73
2023-03-05T02:55:48.365Z,6.79
2023-03-05T02:56:48.346Z,6.71
2023-03-05T02:57:48.358Z,6.80
2023-03-05T02:58:48.329Z,6.90
2023-03-05T02:59:48.324Z,6.71
2023-03-05T03:00:48.357Z,6.68
2023-03-05T03:01:48.284Z,6.86
2023-03-05T03:02:48.314Z,6.68
2023-03-05T03:03:48.267Z,6.83
2023-03-05T03:04:48.269Z,6.80
2023-03-05T03:05:48.322Z,6.90
2023-03-05T03:06:48.240Z,6.90
2023-03-05T03:07:48.232Z,6.72
2023-03-05T03:08:48.198Z,6.47
2023-03-05T03:09:48.188Z,6.68
2023-03-05T03:10:48.194Z,6.76
2023-03-05T03:11:48.234Z,6.81
2023-03-05T03:12:48.160Z,6.87
2023-03-05T03:13:48.186Z,6.80
2023-03-05T03:14:48.137Z,6.91
2023-03-05T03:15:48.133Z,6.71
2023-03-05T03:16:48.195Z,6.73
2023-03-05T03:17:48.139Z,6.95
2023-03-05T03:18:48.137Z,6.99
2023-03-05T03:19:48.104Z,6.89
2023-03-05T03:20:48.100Z,6.87
2023-03-05T03:21:48.067Z,6.89
2023-03-05T03:22:48.103Z,6.90
2023-03-05T03:23:48.030Z,7.04
2023-03-05T03:24:48.022Z,6.90
2023-03-05T03:25:48.022Z,6.58
2023-03-05T03:26:48.003Z,6.54
2023-03-05T03:27:48.031Z,6.62
2023-03-05T03:28:47.974Z,6.59
2023-03-05T03:29:47.966Z,6.76
2023-03-05T03:30:47.971Z,6.69
2023-03-05T03:31:47.969Z,6.69
2023-03-05T03:32:47.941Z,6.43
2023-03-05T03:33:47.965Z,6.53
2023-03-05T03:34:47.921Z,6.58
2023-03-05T03:35:47.931Z,6.68
2023-03-05T03:36:47.907Z,6.62
2023-03-05T03:37:47.911Z,6.69
2023-03-05T03:38:47.875Z,6.58
2023-03-05T03:39:47.900Z,6.58
2023-03-05T03:40:47.837Z,6.71
2023-03-05T03:41:47.827Z,6.53
2023-03-05T03:42:47.819Z,6.58
2023-03-05T03:43:47.827Z,6.76
2023-03-05T03:44:47.852Z,6.79
2023-03-05T03:45:47.827Z,6.71
2023-03-05T03:46:47.772Z,6.71
2023-03-05T03:47:47.778Z,6.63
2023-03-05T03:48:47.741Z,6.76
2023-03-05T03:49:47.740Z,6.56
2023-03-05T03:50:47.779Z,6.63
2023-03-05T03:51:47.745Z,6.72
2023-03-05T03:52:47.728Z,6.54
2023-03-05T03:53:47.693Z,6.54
2023-03-05T03:54:47.683Z,6.63
2023-03-05T03:55:47.692Z,6.69
2023-03-05T03:56:47.668Z,6.61
2023-03-05T03:57:47.672Z,6.62
2023-03-05T03:58:47.633Z,6.65
2023-03-05T03:59:47.620Z,6.54
2023-03-05T04:00:47.645Z,6.65
2023-03-05T04:01:47.630Z,6.58
2023-03-05T04:02:47.601Z,6.50
2023-03-05T04:03:47.579Z,6.54
2023-03-05T04:04:47.573Z,6.51
2023-03-05T04:05:47.577Z,6.68
2023-03-05T04:06:47.572Z,6.54
2023-03-05T04:07:47.559Z,6.36
2023-03-05T04:08:47.528Z,6.51
2023-03-05T04:09:47.531Z,6.54
2023-03-05T04:10:47.495Z,6.56
2023-03-05T04:11:47.486Z,6.58
2023-03-05T04:12:47.483Z,6.35
2023-03-05T04:13:47.482Z,6.43
2023-03-05T04:14:47.478Z,6.29
2023-03-05T04:15:47.464Z,6.32
2023-03-05T04:16:47.422Z,6.21
2023-03-05T04:17:47.429Z,6.00
2023-03-05T04:18:47.413Z,5.88
2023-03-05T04:19:47.446Z,6.07
2023-03-05T04:20:47.374Z,5.88
2023-03-05T04:21:47.420Z,5.91
2023-03-05T04:22:47.377Z,6.13
2023-03-05T04:23:47.343Z,6.14
2023-03-05T04:24:47.385Z,6.11
2023-03-05T04:25:47.388Z,6.11
2023-03-05T04:26:47.314Z,6.16
2023-03-05T04:27:47.312Z,6.28
2023-03-05T04:28:47.338Z,6.35
2023-03-05T04:29:47.264Z,6.51
2023-03-05T04:30:47.310Z,6.50
2023-03-05T04:31:47.280Z,6.54
2023-03-05T04:32:47.259Z,6.62
2023-03-05T04:33:47.250Z,6.79
2023-03-05T04:34:47.217Z,6.77
2023-03-05T04:35:47.275Z,6.68
2023-03-05T04:36:47.214Z,6.72
2023-03-05T04:37:47.169Z,6.90
2023-03-05T04:38:47.172Z,6.89
2023-03-05T04:39:47.148Z,6.80
2023-03-05T04:40:47.149Z,6.72
2023-03-05T04:41:47.165Z,6.54
2023-03-05T04:42:47.130Z,6.51
2023-03-05T04:43:47.116Z,6.59
2023-03-05T04:44:47.088Z,6.54
2023-03-05T04:45:47.077Z,6.62
2023-03-05T04:46:47.115Z,6.79
2023-03-05T04:47:47.102Z,6.94
2023-03-05T04:48:47.070Z,7.16
2023-03-05T04:49:47.029Z,7.32
2023-03-05T04:50:47.016Z,7.40
2023-03-05T04:51:47.015Z,7.40
2023-03-05T04:52:47.062Z,7.22
2023-03-05T04:53:47.089Z,7.19
2023-03-05T04:54:46.978Z,7.31
2023-03-05T04:55:46.966Z,7.31
2023-03-05T04:56:46.992Z,7.29
2023-03-05T04:57:46.957Z,7.32
2023-03-05T04:58:46.997Z,7.32
2023-03-05T04:59:46.986Z,7.34
2023-03-05T05:00:46.965Z,7.32
2023-03-05T05:01:47.050Z,7.29
2023-03-05T05:02:47.004Z,7.15
2023-03-05T05:03:46.997Z,7.01
2023-03-05T05:04:46.874Z,6.89
2023-03-05T05:05:46.868Z,6.97
2023-03-05T05:06:46.835Z,6.99
2023-03-05T05:07:46.849Z,7.01
2023-03-05T05:08:46.873Z,7.01
2023-03-05T05:09:46.813Z,7.05
2023-03-05T05:10:46.817Z,7.13
2023-03-05T05:11:46.772Z,7.12
2023-03-05T05:12:46.772Z,7.09
2023-03-05T05:13:46.756Z,7.05
2023-03-05T05:14:46.751Z,7.04
2023-03-05T05:15:46.749Z,7.15
2023-03-05T05:16:46.748Z,7.16
2023-03-05T05:17:46.711Z,7.19
2023-03-05T05:18:46.704Z,7.05
2023-03-05T05:19:46.684Z,7.04
2023-03-05T05:20:46.676Z,6.98
2023-03-05T05:21:46.691Z,7.12
2023-03-05T05:22:46.657Z,7.13
2023-03-05T05:23:46.646Z,7.13
2023-03-05T05:24:46.675Z,7.17
2023-03-05T05:25:46.614Z,7.15
2023-03-05T05:26:46.601Z,7.05
2023-03-05T05:27:46.607Z,6.91
2023-03-05T05:28:46.617Z,6.81
2023-03-05T05:29:46.561Z,6.71
2023-03-05T05:30:46.593Z,6.62
2023-03-05T05:31:46.646Z,6.62
2023-03-05T05:32:46.553Z,6.72
2023-03-05T05:33:48.759Z,6.72
2023-03-05T05:34:46.503Z,6.77
2023-03-05T05:35:46.550Z,6.91
2023-03-05T05:36:46.489Z,7.08
2023-03-05T05:37:46.476Z,7.16
2023-03-05T05:38:46.466Z,7.16
2023-03-05T05:39:46.458Z,7.16
2023-03-05T05:40:46.453Z,7.15
2023-03-05T05:41:46.429Z,7.08
2023-03-05T05:42:46.408Z,7.04
2023-03-05T05:43:46.420Z,7.02
2023-03-05T05:44:46.432Z,7.05
2023-03-05T05:45:46.477Z,7.07
2023-03-05T05:46:46.420Z,7.05
2023-03-05T05:47:46.378Z,7.09
2023-03-05T05:48:46.372Z,7.12
2023-03-05T05:49:46.333Z,7.09
2023-03-05T05:50:46.353Z,7.09
2023-03-05T05:51:46.311Z,7.07
2023-03-05T05:52:46.312Z,6.98
2023-03-05T05:53:46.280Z,7.05
2023-03-05T05:54:46.274Z,7.09
2023-03-05T05:55:46.265Z,7.08
2023-03-05T05:56:46.282Z,7.07
2023-03-05T05:57:46.232Z,7.07
2023-03-05T05:58:46.226Z,7.04
2023-03-05T05:59:46.214Z,6.98
2023-03-05T06:00:46.214Z,6.86
2023-03-05T06:01:46.205Z,6.94
2023-03-05T06:02:46.229Z,6.95
2023-03-05T06:03:46.158Z,6.99
2023-03-05T06:04:46.153Z,7.05
2023-03-05T06:05:46.155Z,7.05
2023-03-05T06:06:46.125Z,7.09
2023-03-05T06:07:46.141Z,7.02
2023-03-05T06:08:46.121Z,6.89
2023-03-05T06:09:46.095Z,6.87
2023-03-05T06:10:46.098Z,6.81
2023-03-05T06:11:46.083Z,6.71
2023-03-05T06:12:46.069Z,6.83
2023-03-05T06:13:46.071Z,6.98
2023-03-05T06:14:46.039Z,6.90
2023-03-05T06:15:46.024Z,6.66
2023-03-05T06:16:46.066Z,6.54
2023-03-05T06:17:46.038Z,6.30
2023-03-05T06:18:46.006Z,6.38
2023-03-05T06:19:46.029Z,6.47
2023-03-05T06:20:45.986Z,6.69
2023-03-05T06:21:45.948Z,6.77
2023-03-05T06:22:45.933Z,6.97
2023-03-05T06:23:45.942Z,7.07
2023-03-05T06:24:45.992Z,7.04
2023-03-05T06:25:45.946Z,7.07
2023-03-05T06:26:45.963Z,7.09
2023-03-05T06:27:45.911Z,7.17
2023-03-05T06:28:45.877Z,7.20
2023-03-05T06:29:45.861Z,7.12
2023-03-05T06:30:45.868Z,7.22
2023-03-05T06:31:45.872Z,7.20
2023-03-05T06:32:45.837Z,7.19
2023-03-05T06:33:45.993Z,6.95
2023-03-05T06:34:45.804Z,6.69
2023-03-05T06:35:45.823Z,6.71
2023-03-05T06:36:45.811Z,6.89
2023-03-05T06:37:45.765Z,6.98
2023-03-05T06:38:46.528Z,6.94
2023-03-05T06:39:45.735Z,7.08
2023-03-05T06:40:45.725Z,7.16
2023-03-05T06:41:45.737Z,7.16
2023-03-05T06:42:45.735Z,7.01
2023-03-05T06:43:45.693Z,6.81
2023-03-05T06:44:47.248Z,6.94
2023-03-05T06:45:45.770Z,7.05
2023-03-05T06:46:45.669Z,6.94
2023-03-05T06:47:45.652Z,6.76
2023-03-05T06:48:45.651Z,6.47
2023-03-05T06:49:45.632Z,6.29
2023-03-05T06:50:45.617Z,6.46
2023-03-05T06:51:45.612Z,6.36
2023-03-05T06:52:45.590Z,6.32
2023-03-05T06:53:47.245Z,6.22
2023-03-05T06:54:45.572Z,6.28
2023-03-05T06:55:45.557Z,6.46
2023-03-05T06:56:45.550Z,6.46
2023-03-05T06:57:45.578Z,6.09
2023-03-05T06:58:45.525Z,5.86
2023-03-05T06:59:45.553Z,5.86
2023-03-05T07:00:45.498Z,5.96
2023-03-05T07:01:45.581Z,6.19
2023-03-05T07:02:45.618Z,6.00
2023-03-05T07:03:45.462Z,6.03
2023-03-05T07:04:45.482Z,6.16
2023-03-05T07:05:45.448Z,6.06
2023-03-05T07:06:45.436Z,5.92
2023-03-05T07:07:45.438Z,6.03
2023-03-05T07:08:45.393Z,6.07
2023-03-05T07:09:45.387Z,6.41
2023-03-05T07:10:45.388Z,6.58
2023-03-05T07:11:45.362Z,6.26
2023-03-05T07:12:45.348Z,6.07
2023-03-05T07:13:45.330Z,6.14
2023-03-05T07:14:45.347Z,6.25
2023-03-05T07:15:45.343Z,6.36
2023-03-05T07:16:45.388Z,6.38
2023-03-05T07:17:45.320Z,6.33
2023-03-05T07:18:45.289Z,6.40
2023-03-05T07:19:45.286Z,6.22
2023-03-05T07:20:45.292Z,6.21
2023-03-05T07:21:45.335Z,6.43
2023-03-05T07:22:45.261Z,6.62
2023-03-05T07:23:45.226Z,6.51
2023-03-05T07:24:45.201Z,6.50
2023-03-05T07:25:45.199Z,6.50
2023-03-05T07:26:46.445Z,6.47
2023-03-05T07:27:45.200Z,6.51
2023-03-05T07:28:45.170Z,6.54
2023-03-05T07:29:45.162Z,6.61
2023-03-05T07:30:45.175Z,6.56
2023-03-05T07:31:45.191Z,6.51
2023-03-05T07:32:45.113Z,6.58
2023-03-05T07:33:45.139Z,6.73
2023-03-05T07:34:45.109Z,6.69
2023-03-05T07:35:45.095Z,6.83
2023-03-05T07:36:45.062Z,6.69
2023-03-05T07:37:45.044Z,6.63
2023-03-05T07:38:45.145Z,6.76
2023-03-05T07:39:46.941Z,6.38
2023-03-05T07:40:45.025Z,6.36
2023-03-05T07:41:45.002Z,6.14
2023-03-05T07:42:45.158Z,6.07
2023-03-05T07:43:44.982Z,6.19
2023-03-05T07:44:45.035Z,6.30
2023-03-05T07:45:45.107Z,6.51
2023-03-05T07:46:44.981Z,6.56
2023-03-05T07:47:44.938Z,6.22
2023-03-05T07:48:44.944Z,6.18
2023-03-05T07:49:44.936Z,6.28
2023-03-05T07:50:44.928Z,6.29
2023-03-05T07:51:44.908Z,5.98
2023-03-05T07:52:44.878Z,6.14
2023-03-05T07:53:44.866Z,6.28
2023-03-05T07:54:44.854Z,6.18
2023-03-05T07:55:44.919Z,6.22
2023-03-05T07:56:44.864Z,6.33
2023-03-05T07:57:44.834Z,6.22
2023-03-05T07:58:45.470Z,6.33
2023-03-05T07:59:44.807Z,6.54
2023-03-05T08:00:44.795Z,6.38
2023-03-05T08:01:44.790Z,6.29
2023-03-05T08:02:44.802Z,6.19
2023-03-05T08:03:44.808Z,6.21
2023-03-05T08:04:44.736Z,6.29
2023-03-05T08:05:44.725Z,6.33
2023-03-05T08:06:44.859Z,6.30
2023-03-05T08:07:44.700Z,6.35
2023-03-05T08:08:45.937Z,6.18
2023-03-05T08:09:44.685Z,6.07
2023-03-05T08:10:44.723Z,6.03
2023-03-05T08:11:44.669Z,6.19
2023-03-05T08:12:44.629Z,6.10
2023-03-05T08:13:44.643Z,6.29
2023-03-05T08:14:44.645Z,6.56
2023-03-05T08:15:44.662Z,6.46
2023-03-05T08:16:47.199Z,6.21
2023-03-05T08:17:44.575Z,6.46
2023-03-05T08:18:44.601Z,6.30
2023-03-05T08:19:44.604Z,6.30
2023-03-05T08:20:44.564Z,6.26
2023-03-05T08:21:44.548Z,6.26
2023-03-05T08:22:44.557Z,6.44
2023-03-05T08:23:44.514Z,6.62
2023-03-05T08:24:44.499Z,6.48
2023-03-05T08:25:44.508Z,6.63
2023-03-05T08:26:44.478Z,6.83
2023-03-05T08:27:44.477Z,6.90
2023-03-05T08:28:44.477Z,6.73
2023-03-05T08:29:44.438Z,6.61
2023-03-05T08:30:44.461Z,6.51
2023-03-05T08:31:44.456Z,6.63
2023-03-05T08:32:44.408Z,7.08
2023-03-05T08:33:44.413Z,7.29
2023-03-05T08:34:44.422Z,7.45
2023-03-05T08:35:44.608Z,7.37
2023-03-05T08:36:44.418Z,7.04
2023-03-05T08:37:44.431Z,6.84
2023-03-05T08:38:44.329Z,6.94
2023-03-05T08:39:44.406Z,6.91
2023-03-05T08:40:44.305Z,6.91
2023-03-05T08:41:44.349Z,6.89
2023-03-05T08:42:44.319Z,6.99
2023-03-05T08:43:44.317Z,6.84
2023-03-05T08:44:47.913Z,7.17
2023-03-05T08:45:44.261Z,7.37
2023-03-05T08:46:44.336Z,7.16
2023-03-05T08:47:44.292Z,7.12
2023-03-05T08:48:44.320Z,7.34
2023-03-05T08:49:44.211Z,7.42
2023-03-05T08:50:44.212Z,6.87
2023-03-05T08:51:44.207Z,6.83
2023-03-05T08:52:44.188Z,6.71
2023-03-05T08:53:44.182Z,6.77
2023-03-05T08:54:44.140Z,6.87
2023-03-05T08:55:44.296Z,6.76
2023-03-05T08:56:44.154Z,6.71
2023-03-05T08:57:44.120Z,6.98
2023-03-05T08:58:44.115Z,6.97
2023-03-05T08:59:44.122Z,7.20
2023-03-05T09:00:44.111Z,7.19
2023-03-05T09:01:44.141Z,7.12
2023-03-05T09:02:44.081Z,7.01
2023-03-05T09:03:44.060Z,7.20
2023-03-05T09:04:44.072Z,7.40
2023-03-05T09:05:44.034Z,7.37
2023-03-05T09:06:44.027Z,7.45
2023-03-05T09:07:44.004Z,7.44
2023-03-05T09:08:43.994Z,7.37
2023-03-05T09:09:44.001Z,7.12
2023-03-05T09:10:43.997Z,7.37
2023-03-05T09:11:43.973Z,7.26
2023-03-05T09:12:43.955Z,7.01
2023-03-05T09:13:43.957Z,6.80
2023-03-05T09:14:43.944Z,6.95
2023-03-05T09:15:43.935Z,7.37
2023-03-05T09:16:43.939Z,7.09
2023-03-05T09:17:43.905Z,6.98
2023-03-05T09:18:43.887Z,7.08
2023-03-05T09:19:43.866Z,6.90
2023-03-05T09:20:43.864Z,6.84
2023-03-05T09:21:43.873Z,6.98
2023-03-05T09:22:43.832Z,7.02
2023-03-05T09:23:43.835Z,7.12
2023-03-05T09:24:43.833Z,7.01
2023-03-05T09:25:43.794Z,6.89
2023-03-05T09:26:43.796Z,6.83
2023-03-05T09:27:43.819Z,6.90
2023-03-05T09:28:43.772Z,6.97
2023-03-05T09:29:43.789Z,7.32
2023-03-05T09:30:43.773Z,7.24
2023-03-05T09:31:43.759Z,6.90
2023-03-05T09:32:43.766Z,7.01
2023-03-05T09:33:43.717Z,6.90
2023-03-05T09:34:43.691Z,6.94
2023-03-05T09:35:43.840Z,6.80
2023-03-05T09:36:43.673Z,6.77
2023-03-05T09:37:43.669Z,7.01
2023-03-05T09:38:43.654Z,7.01
2023-03-05T09:39:43.656Z,7.07
2023-03-05T09:40:43.633Z,7.16
2023-03-05T09:41:43.605Z,7.38
2023-03-05T09:42:43.604Z,7.55
2023-03-05T09:43:43.607Z,7.40
2023-03-05T09:44:43.618Z,6.91
2023-03-05T09:45:43.649Z,7.05
2023-03-05T09:46:43.569Z,7.22
2023-03-05T09:47:43.583Z,7.01
2023-03-05T09:48:43.545Z,7.19
2023-03-05T09:49:43.537Z,7.23
2023-03-05T09:50:43.534Z,7.19
2023-03-05T09:51:43.525Z,6.97
2023-03-05T09:52:43.518Z,7.17
2023-03-05T09:53:43.491Z,7.17
2023-03-05T09:54:43.492Z,6.90
2023-03-05T09:55:43.464Z,6.80
2023-03-05T09:56:43.458Z,6.77
2023-03-05T09:57:43.448Z,7.01
2023-03-05T09:58:43.415Z,7.04
2023-03-05T09:59:43.397Z,7.27
2023-03-05T10:00:43.392Z,6.94
2023-03-05T10:01:43.388Z,7.16
2023-03-05T10:02:43.442Z,7.07
2023-03-05T10:03:43.396Z,7.09
2023-03-05T10:04:43.348Z,7.07
2023-03-05T10:05:43.333Z,7.09
2023-03-05T10:06:43.400Z,7.32
2023-03-05T10:07:43.344Z,7.24
2023-03-05T10:08:43.338Z,7.40
2023-03-05T10:09:43.289Z,7.40
2023-03-05T10:10:43.313Z,7.45
2023-03-05T10:11:43.290Z,7.19
2023-03-05T10:12:43.261Z,7.59
2023-03-05T10:13:43.240Z,7.17
2023-03-05T10:14:43.293Z,7.24
2023-03-05T10:15:43.251Z,7.40
2023-03-05T10:16:43.228Z,7.75
2023-03-05T10:17:43.214Z,7.53
2023-03-05T10:18:43.193Z,7.34
2023-03-05T10:19:43.210Z,7.35
2023-03-05T10:20:43.182Z,7.53
2023-03-05T10:21:43.171Z,7.59
2023-03-05T10:22:43.195Z,7.31
2023-03-05T10:23:43.134Z,7.35
2023-03-05T10:24:43.123Z,7.27
2023-03-05T10:25:43.142Z,7.40
2023-03-05T10:26:43.116Z,7.60
2023-03-05T10:27:43.141Z,7.41
2023-03-05T10:28:43.090Z,7.45
2023-03-05T10:29:43.070Z,7.26
2023-03-05T10:30:43.060Z,7.58
2023-03-05T10:31:43.141Z,7.74
2023-03-05T10:32:43.111Z,7.58
2023-03-05T10:33:43.041Z,7.96
2023-03-05T10:34:43.011Z,7.60
2023-03-05T10:35:43.044Z,7.89
2023-03-05T10:36:42.985Z,7.87
2023-03-05T10:37:42.994Z,7.89
2023-03-05T10:38:42.970Z,8.14
2023-03-05T10:39:42.944Z,8.26
2023-03-05T10:40:42.945Z,8.48
2023-03-05T10:41:42.946Z,8.60
2023-03-05T10:42:42.925Z,8.45
2023-03-05T10:43:42.917Z,8.26
2023-03-05T10:44:42.893Z,8.20
2023-03-05T10:45:42.967Z,8.35
2023-03-05T10:46:42.879Z,8.88
2023-03-05T10:47:42.857Z,8.96
2023-03-05T10:48:42.905Z,9.34
2023-03-05T10:49:42.825Z,9.35
2023-03-05T10:50:42.846Z,9.56
2023-03-05T10:51:42.821Z,9.21
2023-03-05T10:52:42.809Z,8.26
2023-03-05T10:53:42.808Z,8.33
2023-03-05T10:54:42.826Z,8.12
2023-03-05T10:55:42.777Z,8.15
2023-03-05T10:56:42.776Z,8.30
2023-03-05T10:57:42.740Z,8.78
2023-03-05T10:58:42.723Z,8.79
2023-03-05T10:59:42.771Z,8.48
2023-03-05T11:00:42.707Z,8.81
2023-03-05T11:01:42.741Z,9.02
2023-03-05T11:02:42.762Z,8.78
2023-03-05T11:03:42.678Z,8.66
2023-03-05T11:04:42.666Z,9.25
2023-03-05T11:05:42.667Z,9.16
2023-03-05T11:06:42.637Z,8.68
2023-03-05T11:07:42.622Z,8.11
2023-03-05T11:08:42.612Z,7.53
2023-03-05T11:09:42.599Z,7.82
2023-03-05T11:10:42.612Z,8.44
2023-03-05T11:11:42.618Z,8.29
2023-03-05T11:12:42.564Z,8.50
2023-03-05T11:13:42.614Z,8.58
2023-03-05T11:14:42.538Z,8.33
2023-03-05T11:15:42.553Z,7.99
2023-03-05T11:16:42.617Z,7.93
2023-03-05T11:17:42.863Z,8.18
2023-03-05T11:18:42.497Z,8.04
2023-03-05T11:19:42.485Z,7.89
2023-03-05T11:20:42.475Z,7.81
2023-03-05T11:21:42.466Z,7.84
2023-03-05T11:22:42.479Z,7.82
2023-03-05T11:23:42.434Z,8.00
2023-03-05T11:24:42.435Z,8.18
2023-03-05T11:25:42.463Z,8.28
2023-03-05T11:26:42.410Z,8.30
2023-03-05T11:27:42.385Z,8.36
2023-03-05T11:28:42.445Z,8.04
2023-03-05T11:29:42.377Z,7.89
2023-03-05T11:30:42.390Z,8.15
2023-03-05T11:31:42.346Z,8.47
2023-03-05T11:32:42.343Z,8.32
2023-03-05T11:33:42.359Z,8.33
2023-03-05T11:34:42.347Z,8.42
2023-03-05T11:35:42.375Z,8.26
2023-03-05T11:36:42.393Z,8.22
2023-03-05T11:37:42.286Z,8.02
2023-03-05T11:38:42.289Z,7.90
2023-03-05T11:39:42.315Z,7.85
2023-03-05T11:40:42.352Z,7.71
2023-03-05T11:41:42.242Z,7.56
2023-03-05T11:42:42.229Z,7.85
2023-03-05T11:43:42.213Z,7.84
2023-03-05T11:44:42.217Z,7.69
2023-03-05T11:45:42.258Z,7.74
2023-03-05T11:46:42.181Z,7.41
2023-03-05T11:47:42.192Z,7.42
2023-03-05T11:48:42.157Z,7.50
2023-03-05T11:49:42.151Z,7.55
2023-03-05T11:50:42.172Z,7.59
2023-03-05T11:51:42.139Z,7.75
2023-03-05T11:52:42.100Z,7.75
2023-03-05T11:53:42.111Z,7.92
2023-03-05T11:54:42.105Z,7.67
2023-03-05T11:55:42.113Z,7.60
2023-03-05T11:56:42.115Z,7.66
2023-03-05T11:57:42.061Z,7.69
2023-03-05T11:58:42.047Z,7.72
2023-03-05T11:59:42.031Z,7.84
2023-03-05T12:00:42.022Z,7.55
2023-03-05T12:01:42.035Z,7.62
2023-03-05T12:02:42.037Z,7.66
2023-03-05T12:03:42.027Z,7.87
2023-03-05T12:04:41.974Z,8.14
2023-03-05T12:05:41.946Z,8.00
2023-03-05T12:06:42.533Z,7.93
2023-03-05T12:07:41.980Z,7.96
2023-03-05T12:08:41.931Z,7.78
2023-03-05T12:09:42.354Z,7.97
2023-03-05T12:10:42.009Z,8.26
2023-03-05T12:11:42.250Z,7.87
2023-03-05T12:12:42.149Z,7.79
2023-03-05T12:13:43.050Z,8.10
2023-03-05T12:14:41.868Z,8.12
2023-03-05T12:15:42.083Z,8.03
2023-03-05T12:16:41.828Z,8.04
2023-03-05T12:17:42.251Z,8.02
2023-03-05T12:18:41.830Z,8.22
2023-03-05T12:19:41.841Z,8.26
2023-03-05T12:20:42.028Z,8.00
2023-03-05T12:21:41.836Z,8.53
2023-03-05T12:22:42.021Z,8.54
2023-03-05T12:23:42.073Z,8.35
2023-03-05T12:24:41.792Z,8.25
2023-03-05T12:25:41.817Z,8.42
2023-03-05T12:26:41.979Z,8.54
2023-03-05T12:27:42.365Z,8.18
2023-03-05T12:28:41.815Z,8.29
2023-03-05T12:29:41.701Z,8.33
2023-03-05T12:30:42.292Z,8.40
2023-03-05T12:31:41.851Z,8.29
2023-03-05T12:32:41.859Z,8.32
2023-03-05T12:33:41.637Z,8.42
2023-03-05T12:34:41.865Z,8.29
2023-03-05T12:35:41.695Z,8.50
2023-03-05T12:36:41.679Z,8.28
2023-03-05T12:37:41.654Z,8.10
2023-03-05T12:38:41.598Z,8.14
2023-03-05T12:39:41.800Z,8.30
2023-03-05T12:40:41.550Z,8.69
2023-03-05T12:41:41.838Z,8.87
2023-03-05T12:42:41.580Z,8.78
2023-03-05T12:43:41.561Z,8.75
2023-03-05T12:44:41.513Z,8.55
2023-03-05T12:45:41.522Z,8.81
2023-03-05T12:46:41.524Z,8.73
2023-03-05T12:47:41.520Z,8.57
2023-03-05T12:48:41.567Z,8.86
2023-03-05T12:49:41.529Z,8.86
2023-03-05T12:50:41.448Z,8.47
2023-03-05T12:51:41.794Z,8.54
2023-03-05T12:52:41.432Z,8.54
2023-03-05T12:53:41.401Z,8.39
2023-03-05T12:54:41.476Z,8.21
2023-03-05T12:55:41.396Z,8.54
2023-03-05T12:56:41.377Z,8.69
2023-03-05T12:57:41.374Z,8.71
2023-03-05T12:58:41.355Z,8.79
2023-03-05T12:59:41.355Z,8.30
2023-03-05T13:00:41.449Z,7.92
2023-03-05T13:01:41.346Z,7.55
2023-03-05T13:02:41.324Z,7.47
2023-03-05T13:03:41.307Z,7.66
2023-03-05T13:04:41.290Z,7.41
2023-03-05T13:05:41.268Z,7.37
2023-03-05T13:06:41.409Z,7.41
2023-03-05T13:07:41.244Z,7.42
2023-03-05T13:08:41.245Z,7.50
2023-03-05T13:09:41.461Z,7.89
2023-03-05T13:10:41.216Z,7.90
2023-03-05T13:11:41.242Z,7.79
2023-03-05T13:12:41.208Z,7.87
2023-03-05T13:13:41.192Z,7.82
2023-03-05T13:14:41.153Z,7.59
2023-03-05T13:15:41.156Z,7.67
2023-03-05T13:16:41.224Z,7.81
2023-03-05T13:17:41.172Z,7.75
2023-03-05T13:18:41.160Z,7.59